createdAt,value
2022-12-18T00:00:49.894Z,99565.91
2022-12-18T00:01:51.207Z,99566.56
2022-12-18T00:02:52.595Z,99569.16
2022-12-18T00:03:54.932Z,99564.81
2022-12-18T00:04:56.311Z,99563.50
2022-12-18T00:05:57.560Z,99572.94
2022-12-18T00:06:58.826Z,99569.84
2022-12-18T00:08:00.396Z,99568.41
2022-12-18T00:09:03.757Z,99565.19
2022-12-18T00:10:05.325Z,99563.09
2022-12-18T00:11:07.979Z,99560.88
2022-12-18T00:13:16.987Z,99564.38
2022-12-18T00:14:18.225Z,99555.19
2022-12-18T00:15:19.688Z,99560.84
2022-12-18T00:16:22.213Z,99562.78
2022-12-18T00:17:24.492Z,99568.03
2022-12-18T00:18:25.683Z,99563.06
2022-12-18T00:19:27.045Z,99564.16
2022-12-18T00:20:28.295Z,99559.81
2022-12-18T00:21:30.044Z,99558.88
2022-12-18T00:22:31.233Z,99561.59
2022-12-18T00:23:33.134Z,99562.56
2022-12-18T00:24:34.362Z,99565.47
2022-12-18T00:25:36.601Z,99566.28
2022-12-18T00:26:38.749Z,99571.41
2022-12-18T00:27:40.001Z,99572.88
2022-12-18T00:28:41.290Z,99577.22
2022-12-18T00:29:42.510Z,99577.22
2022-12-18T00:30:43.786Z,99581.56
2022-12-18T00:31:45.304Z,99578.19
2022-12-18T00:32:46.579Z,99574.94
2022-12-18T00:33:48.342Z,99574.50
2022-12-18T00:34:53.926Z,99573.22
2022-12-18T00:35:55.161Z,99579.78
2022-12-18T00:36:56.361Z,99570.84
2022-12-18T00:37:57.547Z,99574.22
2022-12-18T00:38:59.780Z,99578.84
2022-12-18T00:40:01.053Z,99575.97
2022-12-18T00:41:03.740Z,99577.56
2022-12-18T00:42:04.972Z,99570.53
2022-12-18T00:43:06.397Z,99576.31
2022-12-18T00:44:08.496Z,99574.69
2022-12-18T00:45:13.009Z,99576.19
2022-12-18T00:46:14.651Z,99576.81
2022-12-18T00:47:15.919Z,99570.72
2022-12-18T00:48:17.226Z,99572.19
2022-12-18T00:49:19.736Z,99574.44
2022-12-18T00:50:21.707Z,99574.47
2022-12-18T00:51:23.034Z,99564.19
2022-12-18T00:52:24.270Z,99568.22
2022-12-18T00:53:25.487Z,99558.41
2022-12-18T00:54:26.791Z,99565.78
2022-12-18T00:55:27.979Z,99565.78
2022-12-18T00:56:29.374Z,99567.56
2022-12-18T00:57:30.614Z,99566.75
2022-12-18T00:58:32.021Z,99560.50
2022-12-18T00:59:33.229Z,99561.78
2022-12-18T01:00:34.812Z,99567.91
2022-12-18T01:01:36.214Z,99563.09
2022-12-18T01:02:40.818Z,99562.63
2022-12-18T01:03:42.348Z,99563.56
2022-12-18T01:04:44.225Z,99565.53
2022-12-18T01:05:45.526Z,99567.75
2022-12-18T01:06:46.733Z,99561.94
2022-12-18T01:07:47.982Z,99570.63
2022-12-18T01:08:49.184Z,99564.81
2022-12-18T01:09:50.457Z,99562.91
2022-12-18T01:10:51.791Z,99563.88
2022-12-18T01:11:53.324Z,99559.53
2022-12-18T01:12:54.546Z,99560.50
2022-12-18T01:13:55.794Z,99562.56
2022-12-18T01:14:57.227Z,99558.53
2022-12-18T01:15:58.438Z,99564.81
2022-12-18T01:16:59.659Z,99572.97
2022-12-18T01:18:01.508Z,99576.34
2022-12-18T01:19:02.900Z,99574.88
2022-12-18T01:20:04.415Z,99579.91
2022-12-18T01:21:07.999Z,99578.75
2022-12-18T01:22:11.784Z,99581.84
2022-12-18T01:23:13.045Z,99579.09
2022-12-18T01:24:14.337Z,99579.91
2022-12-18T01:25:16.652Z,99580.75
2022-12-18T01:26:18.465Z,99582.00
2022-12-18T01:27:19.742Z,99577.16
2022-12-18T01:28:20.960Z,99581.03
2022-12-18T01:29:22.201Z,99578.94
2022-12-18T01:30:23.494Z,99582.13
2022-12-18T01:31:29.257Z,99580.38
2022-12-18T01:32:31.382Z,99581.66
2022-12-18T01:33:32.597Z,99575.84
2022-12-18T01:34:34.198Z,99572.63
2022-12-18T01:35:42.308Z,99582.75
2022-12-18T01:36:43.577Z,99579.78
2022-12-18T01:37:45.063Z,99578.31
2022-12-18T01:38:46.856Z,99587.59
2022-12-18T01:39:48.098Z,99587.91
2022-12-18T01:40:49.407Z,99583.09
2022-12-18T01:41:50.663Z,99588.47
2022-12-18T01:42:52.241Z,99583.91
2022-12-18T01:43:54.989Z,99580.03
2022-12-18T01:44:56.192Z,99585.03
2022-12-18T01:46:00.116Z,99587.75
2022-12-18T01:47:01.469Z,99593.72
2022-12-18T01:48:06.079Z,99591.78
2022-12-18T01:49:07.355Z,99592.75
2022-12-18T01:50:14.330Z,99595.31
2022-12-18T01:51:16.036Z,99591.34
2022-12-18T01:52:19.449Z,99595.16
2022-12-18T01:53:23.093Z,99587.75
2022-12-18T01:54:24.373Z,99583.44
2022-12-18T01:55:26.979Z,99581.00
2022-12-18T01:56:28.232Z,99573.28
2022-12-18T01:57:29.656Z,99565.72
2022-12-18T01:58:33.514Z,99565.78
2022-12-18T01:59:36.003Z,99564.81
2022-12-18T02:00:37.279Z,99571.56
2022-12-18T02:01:38.686Z,99571.72
2022-12-18T02:02:41.582Z,99583.09
2022-12-18T02:03:43.842Z,99579.91
2022-12-18T02:04:49.385Z,99579.44
2022-12-18T02:05:59.211Z,99581.03
2022-12-18T02:07:01.561Z,99584.41
2022-12-18T02:08:10.554Z,99576.25
2022-12-18T02:09:18.105Z,99578.00
2022-12-18T02:10:23.307Z,99575.94
2022-12-18T02:11:32.121Z,99579.63
2022-12-18T02:12:52.197Z,99575.09
2022-12-18T02:14:12.051Z,99574.31
2022-12-18T02:15:34.598Z,99564.47
2022-12-18T02:16:38.908Z,99560.81
2022-12-18T02:17:52.963Z,99564.19
2022-12-18T02:18:57.470Z,99579.97
2022-12-18T02:20:16.965Z,99585.41
2022-12-18T02:21:20.997Z,99590.88
2022-12-18T02:22:40.590Z,99589.41
2022-12-18T02:24:04.148Z,99592.44
2022-12-18T02:25:22.635Z,99597.28
2022-12-18T02:26:29.677Z,99598.59
2022-12-18T02:27:33.195Z,99588.75
2022-12-18T02:28:37.109Z,99582.13
2022-12-18T02:29:40.707Z,99585.84
2022-12-18T02:30:43.382Z,99585.22
2022-12-18T02:31:47.834Z,99584.25
2022-12-18T02:32:53.667Z,99582.34
2022-12-18T02:33:57.070Z,99584.41
2022-12-18T02:34:59.815Z,99585.22
2022-12-18T02:36:03.886Z,99585.88
2022-12-18T02:37:09.956Z,99585.22
2022-12-18T02:38:12.741Z,99590.38
2022-12-18T02:39:16.639Z,99583.78
2022-12-18T02:40:30.824Z,99590.81
2022-12-18T02:41:34.645Z,99590.38
2022-12-18T02:42:37.205Z,99595.69
2022-12-18T02:43:43.186Z,99593.41
2022-12-18T02:44:45.569Z,99597.56
2022-12-18T02:45:58.807Z,99597.75
2022-12-18T02:47:01.092Z,99599.84
2022-12-18T02:48:02.510Z,99605.00
2022-12-18T02:49:11.166Z,99606.59
2022-12-18T02:50:18.990Z,99604.84
2022-12-18T02:51:25.597Z,99602.94
2022-12-18T02:52:37.178Z,99603.72
2022-12-18T02:53:54.102Z,99602.13
2022-12-18T02:55:19.874Z,99604.69
2022-12-18T02:56:31.097Z,99608.25
2022-12-18T02:57:32.490Z,99605.69
2022-12-18T02:58:52.287Z,99602.16
2022-12-18T03:00:09.364Z,99606.34
2022-12-18T03:01:14.706Z,99605.38
2022-12-18T03:02:26.526Z,99603.91
2022-12-18T03:03:30.813Z,99605.69
2022-12-18T03:04:40.354Z,99599.56
2022-12-18T03:05:51.208Z,99600.25
2022-12-18T03:06:55.466Z,99596.69
2022-12-18T03:07:56.702Z,99600.72
2022-12-18T03:09:08.293Z,99599.63
2022-12-18T03:10:12.534Z,99597.34
2022-12-18T03:11:14.773Z,99601.69
2022-12-18T03:12:33.381Z,99599.28
2022-12-18T03:13:49.302Z,99599.78
2022-12-18T03:15:00.511Z,99603.34
2022-12-18T03:16:02.845Z,99592.41
2022-12-18T03:17:05.952Z,99606.06
2022-12-18T03:18:17.038Z,99608.66
2022-12-18T03:19:21.620Z,99610.53
2022-12-18T03:20:26.706Z,99619.91
2022-12-18T03:21:30.595Z,99615.72
2022-12-18T03:22:33.943Z,99614.50
2022-12-18T03:23:37.599Z,99611.44
2022-12-18T03:24:40.075Z,99608.84
2022-12-18T03:25:44.566Z,99605.31
2022-12-18T03:26:47.339Z,99613.22
2022-12-18T03:27:52.255Z,99606.78
2022-12-18T03:29:00.602Z,99609.38
2022-12-18T03:30:04.670Z,99616.41
2022-12-18T03:31:07.452Z,99620.13
2022-12-18T03:32:11.630Z,99615.91
2022-12-18T03:33:16.926Z,99619.63
2022-12-18T03:34:23.657Z,99612.41
2022-12-18T03:35:27.594Z,99617.56
2022-12-18T03:36:29.060Z,99620.25
2022-12-18T03:37:30.289Z,99620.41
2022-12-18T03:38:32.411Z,99620.47
2022-12-18T03:39:34.232Z,99618.03
2022-12-18T03:40:41.486Z,99613.69
2022-12-18T03:41:55.130Z,99610.31
2022-12-18T03:43:07.765Z,99609.97
2022-12-18T03:44:20.490Z,99610.47
2022-12-18T03:45:31.850Z,99605.16
2022-12-18T03:46:48.129Z,99610.63
2022-12-18T03:47:57.619Z,99608.22
2022-12-18T03:49:05.218Z,99614.19
2022-12-18T03:50:19.283Z,99615.16
2022-12-18T03:51:29.286Z,99619.81
2022-12-18T03:52:35.254Z,99614.19
2022-12-18T03:53:42.936Z,99614.19
2022-12-18T03:54:46.351Z,99616.13
2022-12-18T03:55:52.329Z,99612.75
2022-12-18T03:56:57.886Z,99610.16
2022-12-18T03:58:00.600Z,99614.50
2022-12-18T03:59:06.951Z,99617.88
2022-12-18T04:00:15.933Z,99610.97
2022-12-18T04:01:34.327Z,99606.97
2022-12-18T04:02:38.478Z,99595.53
2022-12-18T04:03:43.931Z,99599.91
2022-12-18T04:04:47.220Z,99600.22
2022-12-18T04:05:51.153Z,99598.47
2022-12-18T04:06:54.768Z,99604.41
2022-12-18T04:07:57.472Z,99609.88
2022-12-18T04:08:59.298Z,99606.16
2022-12-18T04:10:02.283Z,99610.00
2022-12-18T04:11:06.268Z,99605.31
2022-12-18T04:12:09.446Z,99614.97
2022-12-18T04:13:10.763Z,99614.31
2022-12-18T04:14:17.409Z,99615.44
2022-12-18T04:15:19.482Z,99613.00
2022-12-18T04:16:20.877Z,99614.31
2022-12-18T04:17:25.902Z,99614.81
2022-12-18T04:18:27.192Z,99610.13
2022-12-18T04:19:29.315Z,99609.50
2022-12-18T04:20:30.791Z,99603.22
2022-12-18T04:21:32.046Z,99611.09
2022-12-18T04:22:33.323Z,99602.88
2022-12-18T04:23:34.766Z,99606.41
2022-12-18T04:24:36.949Z,99615.22
2022-12-18T04:25:47.431Z,99618.59
2022-12-18T04:26:53.580Z,99617.34
2022-12-18T04:28:01.025Z,99614.09
2022-12-18T04:29:02.316Z,99615.56
2022-12-18T04:30:04.221Z,99613.13
2022-12-18T04:31:06.019Z,99612.31
2022-12-18T04:32:07.837Z,99614.09
2022-12-18T04:33:09.879Z,99625.06
2022-12-18T04:34:11.146Z,99615.06
2022-12-18T04:35:18.809Z,99627.75
2022-12-18T04:36:20.138Z,99616.03
2022-12-18T04:37:22.107Z,99618.00
2022-12-18T04:38:24.692Z,99619.91
2022-12-18T04:39:33.238Z,99615.44
2022-12-18T04:40:40.170Z,99607.03
2022-12-18T04:41:49.647Z,99612.19
2022-12-18T04:42:50.983Z,99601.59
2022-12-18T04:43:52.258Z,99608.81
2022-12-18T04:44:53.464Z,99611.72
2022-12-18T04:45:54.667Z,99619.75
2022-12-18T04:46:55.917Z,99616.03
2022-12-18T04:48:00.250Z,99610.88
2022-12-18T04:49:01.476Z,99612.19
2022-12-18T04:50:02.769Z,99614.09
2022-12-18T04:51:04.754Z,99615.50
2022-12-18T04:52:05.948Z,99617.28
2022-12-18T04:53:08.718Z,99612.94
2022-12-18T04:54:11.173Z,99622.59
2022-12-18T04:55:12.383Z,99607.00
2022-12-18T04:56:14.850Z,99611.16
2022-12-18T04:57:16.129Z,99607.00
2022-12-18T04:58:17.533Z,99604.25
2022-12-18T04:59:18.765Z,99610.53
2022-12-18T05:00:20.107Z,99603.78
2022-12-18T05:01:21.496Z,99599.56
2022-12-18T05:02:22.920Z,99599.56
2022-12-18T05:03:24.197Z,99607.28
2022-12-18T05:04:25.550Z,99603.13
2022-12-18T05:05:26.763Z,99602.59
2022-12-18T05:06:27.950Z,99605.19
2022-12-18T05:07:29.241Z,99607.91
2022-12-18T05:08:30.872Z,99605.84
2022-12-18T05:09:32.070Z,99606.66
2022-12-18T05:10:37.994Z,99606.66
2022-12-18T05:11:39.595Z,99600.34
2022-12-18T05:12:40.858Z,99599.38
2022-12-18T05:13:42.829Z,99606.47
2022-12-18T05:14:44.202Z,99605.34
2022-12-18T05:15:51.985Z,99607.91
2022-12-18T05:16:56.767Z,99603.13
2022-12-18T05:18:02.682Z,99605.53
2022-12-18T05:19:03.921Z,99612.59
2022-12-18T05:20:05.398Z,99605.50
2022-12-18T05:21:06.646Z,99616.88
2022-12-18T05:22:07.922Z,99612.31
2022-12-18T05:23:09.205Z,99615.63
2022-12-18T05:24:10.455Z,99612.41
2022-12-18T05:25:11.650Z,99623.63
2022-12-18T05:26:15.659Z,99622.38
2022-12-18T05:27:16.894Z,99631.22
2022-12-18T05:28:18.138Z,99628.44
2022-12-18T05:29:19.620Z,99621.41
2022-12-18T05:30:20.865Z,99624.59
2022-12-18T05:31:22.086Z,99621.53
2022-12-18T05:32:23.324Z,99617.50
2022-12-18T05:33:25.577Z,99625.06
2022-12-18T05:34:26.802Z,99622.94
2022-12-18T05:35:28.062Z,99620.84
2022-12-18T05:36:29.550Z,99623.72
2022-12-18T05:37:30.751Z,99625.34
2022-12-18T05:38:32.697Z,99634.16
2022-12-18T05:39:33.881Z,99638.00
2022-12-18T05:40:35.070Z,99645.19
2022-12-18T05:41:36.295Z,99641.06
2022-12-18T05:42:37.522Z,99652.13
2022-12-18T05:43:40.058Z,99648.56
2022-12-18T05:44:41.661Z,99651.47
2022-12-18T05:45:43.241Z,99646.66
2022-12-18T05:46:44.488Z,99638.94
2022-12-18T05:47:45.810Z,99628.94
2022-12-18T05:48:47.584Z,99635.41
2022-12-18T05:49:48.788Z,99629.75
2022-12-18T05:50:50.881Z,99627.16
2022-12-18T05:51:54.508Z,99632.03
2022-12-18T05:52:55.778Z,99623.34
2022-12-18T05:53:57.132Z,99621.06
2022-12-18T05:54:58.381Z,99625.56
2022-12-18T05:56:03.895Z,99632.47
2022-12-18T05:57:05.187Z,99626.81
2022-12-18T05:58:07.026Z,99625.50
2022-12-18T05:59:08.294Z,99631.31
2022-12-18T06:00:09.870Z,99633.22
2022-12-18T06:01:14.853Z,99630.63
2022-12-18T06:02:16.278Z,99627.28
2022-12-18T06:03:17.684Z,99622.28
2022-12-18T06:04:19.021Z,99618.41
2022-12-18T06:05:20.260Z,99629.19
2022-12-18T06:06:23.351Z,99623.59
2022-12-18T06:07:24.813Z,99627.28
2022-12-18T06:08:26.201Z,99636.09
2022-12-18T06:09:27.446Z,99630.16
2022-12-18T06:10:28.694Z,99631.09
2022-12-18T06:11:29.934Z,99637.63
2022-12-18T06:12:31.161Z,99634.69
2022-12-18T06:13:32.363Z,99630.00
2022-12-18T06:14:33.597Z,99627.44
2022-12-18T06:15:37.371Z,99625.66
2022-12-18T06:16:38.696Z,99633.88
2022-12-18T06:17:39.959Z,99632.84
2022-12-18T06:18:41.226Z,99623.81
2022-12-18T06:19:42.438Z,99628.47
2022-12-18T06:20:43.678Z,99625.91
2022-12-18T06:21:45.038Z,99625.00
2022-12-18T06:22:46.291Z,99625.59
2022-12-18T06:23:47.531Z,99615.47
2022-12-18T06:24:48.886Z,99627.53
2022-12-18T06:25:50.083Z,99626.03
2022-12-18T06:26:51.336Z,99627.00
2022-12-18T06:27:52.544Z,99631.19
2022-12-18T06:28:53.731Z,99627.22
2022-12-18T06:29:54.970Z,99640.09
2022-12-18T06:30:56.390Z,99636.19
2022-12-18T06:31:57.654Z,99639.84
2022-12-18T06:32:58.877Z,99636.63
2022-12-18T06:34:02.408Z,99650.44
2022-12-18T06:35:04.706Z,99643.66
2022-12-18T06:36:13.145Z,99651.69
2022-12-18T06:37:14.374Z,99646.56
2022-12-18T06:38:15.667Z,99650.88
2022-12-18T06:39:16.871Z,99650.88
2022-12-18T06:40:18.123Z,99649.78
2022-12-18T06:41:20.975Z,99652.50
2022-12-18T06:42:22.267Z,99646.56
2022-12-18T06:43:23.529Z,99646.56
2022-12-18T06:44:24.765Z,99649.41
2022-12-18T06:45:26.055Z,99645.00
2022-12-18T06:46:27.485Z,99645.44
2022-12-18T06:47:28.728Z,99650.72
2022-12-18T06:48:30.370Z,99651.81
2022-12-18T06:49:31.596Z,99656.97
2022-12-18T06:50:32.828Z,99651.34
2022-12-18T06:51:34.072Z,99646.03
2022-12-18T06:52:35.355Z,99649.41
2022-12-18T06:53:36.642Z,99644.94
2022-12-18T06:54:37.958Z,99643.63
2022-12-18T06:55:39.254Z,99653.09
2022-12-18T06:56:41.291Z,99644.72
2022-12-18T06:57:42.491Z,99649.41
2022-12-18T06:58:43.731Z,99653.22
2022-12-18T06:59:44.923Z,99656.31
2022-12-18T07:00:46.162Z,99654.19
2022-12-18T07:01:47.597Z,99653.22
2022-12-18T07:02:49.106Z,99655.94
2022-12-18T07:03:53.791Z,99658.69
2022-12-18T07:04:55.038Z,99659.47
2022-12-18T07:05:56.273Z,99657.41
2022-12-18T07:06:57.508Z,99670.41
2022-12-18T07:07:58.879Z,99666.38
2022-12-18T07:09:00.147Z,99669.59
2022-12-18T07:10:01.369Z,99667.19
2022-12-18T07:11:04.368Z,99667.31
2022-12-18T07:12:05.599Z,99675.19
2022-12-18T07:13:06.829Z,99674.75
2022-12-18T07:14:08.082Z,99672.31
2022-12-18T07:15:09.491Z,99675.84
2022-12-18T07:16:20.789Z,99686.13
2022-12-18T07:17:25.367Z,99676.13
2022-12-18T07:18:26.603Z,99682.88
2022-12-18T07:19:27.809Z,99678.72
2022-12-18T07:20:30.139Z,99676.88
2022-12-18T07:21:31.550Z,99680.41
2022-12-18T07:22:32.753Z,99681.66
2022-12-18T07:23:34.569Z,99674.00
2022-12-18T07:24:35.768Z,99677.66
2022-12-18T07:25:37.899Z,99682.66
2022-12-18T07:26:39.225Z,99679.28
2022-12-18T07:27:40.481Z,99682.00
2022-12-18T07:28:42.131Z,99684.41
2022-12-18T07:29:43.374Z,99686.34
2022-12-18T07:30:44.566Z,99694.56
2022-12-18T07:31:45.893Z,99690.25
2022-12-18T07:32:47.275Z,99697.50
2022-12-18T07:33:48.722Z,99702.34
2022-12-18T07:34:49.961Z,99703.28
2022-12-18T07:35:51.179Z,99707.19
2022-12-18T07:36:52.373Z,99706.53
2022-12-18T07:37:53.555Z,99697.44
2022-12-18T07:38:54.805Z,99701.75
2022-12-18T07:39:56.011Z,99695.78
2022-12-18T07:41:04.239Z,99705.94
2022-12-18T07:42:08.021Z,99699.56
2022-12-18T07:43:09.201Z,99698.88
2022-12-18T07:44:11.365Z,99703.22
2022-12-18T07:45:12.683Z,99702.13
2022-12-18T07:46:14.357Z,99700.84
2022-12-18T07:47:15.614Z,99699.41
2022-12-18T07:48:16.838Z,99692.66
2022-12-18T07:49:18.026Z,99690.88
2022-12-18T07:50:19.285Z,99701.16
2022-12-18T07:51:20.511Z,99695.72
2022-12-18T07:52:25.936Z,99698.78
2022-12-18T07:53:27.878Z,99696.06
2022-12-18T07:54:29.137Z,99697.72
2022-12-18T07:55:45.499Z,99693.22
2022-12-18T07:56:52.427Z,99698.06
2022-12-18T07:57:59.217Z,99703.69
2022-12-18T07:59:02.276Z,99702.28
2022-12-18T08:00:03.901Z,99695.38
2022-12-18T08:01:13.677Z,99696.81
2022-12-18T08:02:15.217Z,99693.44
2022-12-18T08:03:16.649Z,99692.66
2022-12-18T08:04:17.973Z,99691.19
2022-12-18T08:05:19.275Z,99689.09
2022-12-18T08:06:22.426Z,99695.72
2022-12-18T08:07:25.682Z,99697.50
2022-12-18T08:08:26.963Z,99692.19
2022-12-18T08:09:28.395Z,99700.44
2022-12-18T08:10:29.777Z,99702.56
2022-12-18T08:11:31.132Z,99694.66
2022-12-18T08:12:32.577Z,99706.28
2022-12-18T08:13:33.887Z,99710.91
2022-12-18T08:14:35.115Z,99703.84
2022-12-18T08:15:36.286Z,99714.00
2022-12-18T08:16:37.721Z,99708.97
2022-12-18T08:17:38.960Z,99704.97
2022-12-18T08:18:40.198Z,99706.72
2022-12-18T08:19:41.403Z,99706.72
2022-12-18T08:20:42.630Z,99705.47
2022-12-18T08:21:43.889Z,99702.22
2022-12-18T08:22:45.322Z,99712.50
2022-12-18T08:23:47.003Z,99706.56
2022-12-18T08:24:48.458Z,99714.00
2022-12-18T08:25:49.763Z,99711.44
2022-12-18T08:27:06.723Z,99712.75
2022-12-18T08:28:12.229Z,99717.56
2022-12-18T08:29:17.334Z,99710.00
2022-12-18T08:30:22.783Z,99711.63
2022-12-18T08:31:24.575Z,99714.69
2022-12-18T08:32:26.713Z,99716.16
2022-12-18T08:33:28.074Z,99713.56
2022-12-18T08:34:29.327Z,99710.56
2022-12-18T08:35:35.543Z,99704.59
2022-12-18T08:36:38.236Z,99708.31
2022-12-18T08:37:39.519Z,99715.91
2022-12-18T08:38:41.336Z,99709.00
2022-12-18T08:39:43.149Z,99710.91
2022-12-18T08:40:44.352Z,99714.50
2022-12-18T08:41:45.682Z,99706.63
2022-12-18T08:42:46.895Z,99708.09
2022-12-18T08:43:48.414Z,99708.72
2022-12-18T08:44:49.652Z,99709.53
2022-12-18T08:45:51.186Z,99708.44
2022-12-18T08:46:52.510Z,99707.19
2022-12-18T08:47:53.761Z,99703.19
2022-12-18T08:48:55.304Z,99707.34
2022-12-18T08:49:56.509Z,99704.47
2022-12-18T08:50:58.541Z,99707.69
2022-12-18T08:51:59.740Z,99702.38
2022-12-18T08:53:01.178Z,99713.19
2022-12-18T08:54:02.809Z,99710.31
2022-12-18T08:55:05.596Z,99705.81
2022-12-18T08:56:06.969Z,99708.22
2022-12-18T08:57:08.197Z,99708.88
2022-12-18T08:58:09.420Z,99703.56
2022-12-18T08:59:17.319Z,99706.81
2022-12-18T09:00:20.665Z,99702.13
2022-12-18T09:01:22.363Z,99706.19
2022-12-18T09:02:23.773Z,99697.31
2022-12-18T09:03:25.240Z,99698.63
2022-12-18T09:04:26.508Z,99691.41
2022-12-18T09:05:27.691Z,99693.97
2022-12-18T09:06:28.894Z,99682.72
2022-12-18T09:07:30.076Z,99679.66
2022-12-18T09:08:31.317Z,99681.94
2022-12-18T09:09:32.559Z,99684.84
2022-12-18T09:10:36.553Z,99683.88
2022-12-18T09:11:42.290Z,99690.13
2022-12-18T09:12:43.534Z,99694.00
2022-12-18T09:13:47.771Z,99685.47
2022-12-18T09:14:49.010Z,99690.00
2022-12-18T09:15:54.076Z,99696.47
2022-12-18T09:16:55.330Z,99700.63
2022-12-18T09:17:56.566Z,99693.25
2022-12-18T09:18:58.127Z,99700.97
2022-12-18T09:19:59.325Z,99690.50
2022-12-18T09:21:00.617Z,99687.13
2022-12-18T09:22:01.859Z,99686.00
2022-12-18T09:23:03.349Z,99679.53
2022-12-18T09:24:07.015Z,99678.13
2022-12-18T09:25:10.022Z,99681.81
2022-12-18T09:26:11.314Z,99677.28
2022-12-18T09:27:12.634Z,99676.19
2022-12-18T09:28:15.158Z,99678.75
2022-12-18T09:29:18.681Z,99674.75
2022-12-18T09:30:20.371Z,99668.94
2022-12-18T09:31:23.166Z,99667.66
2022-12-18T09:32:24.465Z,99665.06
2022-12-18T09:33:25.684Z,99663.97
2022-12-18T09:34:27.437Z,99668.13
2022-12-18T09:35:28.632Z,99678.75
2022-12-18T09:36:29.868Z,99664.09
2022-12-18T09:37:31.132Z,99662.00
2022-12-18T09:38:32.321Z,99664.28
2022-12-18T09:39:36.310Z,99669.75
2022-12-18T09:40:44.436Z,99668.78
2022-12-18T09:41:45.669Z,99671.19
2022-12-18T09:42:49.969Z,99668.91
2022-12-18T09:43:54.921Z,99668.91
2022-12-18T09:44:56.631Z,99674.72
2022-12-18T09:46:01.140Z,99668.59
2022-12-18T09:47:08.468Z,99667.28
2022-12-18T09:48:28.543Z,99669.53
2022-12-18T09:49:31.730Z,99662.78
2022-12-18T09:50:36.289Z,99659.03
2022-12-18T09:51:40.823Z,99663.72
2022-12-18T09:52:44.623Z,99654.38
2022-12-18T09:53:51.493Z,99655.00
2022-12-18T09:54:56.149Z,99651.00
2022-12-18T09:55:58.246Z,99653.56
2022-12-18T09:56:59.609Z,99657.13
2022-12-18T09:58:08.039Z,99652.91
2022-12-18T09:59:18.361Z,99659.50
2022-12-18T10:00:23.841Z,99666.91
2022-12-18T10:01:27.093Z,99666.91
2022-12-18T10:02:32.148Z,99665.81
2022-12-18T10:03:33.442Z,99667.06
2022-12-18T10:04:34.766Z,99665.94
2022-12-18T10:05:36.075Z,99672.22
2022-12-18T10:06:57.564Z,99667.34
2022-12-18T10:08:01.866Z,99661.88
2022-12-18T10:09:11.247Z,99664.94
2022-12-18T10:10:22.085Z,99673.31
2022-12-18T10:11:41.751Z,99666.97
2022-12-18T10:13:15.544Z,99667.63
2022-12-18T10:14:16.734Z,99665.03
2022-12-18T10:15:25.293Z,99660.50
2022-12-18T10:16:41.896Z,99665.16
2022-12-18T10:17:48.605Z,99669.81
2022-12-18T10:19:05.126Z,99676.41
2022-12-18T10:20:26.667Z,99677.03
2022-12-18T10:21:34.626Z,99678.44
2022-12-18T10:22:42.865Z,99685.22
2022-12-18T10:23:49.478Z,99686.34
2022-12-18T10:24:50.971Z,99686.03
2022-12-18T10:26:12.478Z,99679.72
2022-12-18T10:27:13.666Z,99678.06
2022-12-18T10:28:16.233Z,99680.03
2022-12-18T10:29:18.067Z,99683.84
2022-12-18T10:30:20.582Z,99683.53
2022-12-18T10:31:24.882Z,99688.19
2022-12-18T10:32:28.004Z,99684.63
2022-12-18T10:33:30.388Z,99680.72
2022-12-18T10:34:31.625Z,99667.59
2022-12-18T10:35:32.996Z,99666.66
2022-12-18T10:36:34.721Z,99668.88
2022-12-18T10:37:35.961Z,99673.88
2022-12-18T10:38:37.265Z,99670.63
2022-12-18T10:39:38.564Z,99683.03
2022-12-18T10:40:48.886Z,99680.44
2022-12-18T10:41:50.191Z,99677.69
2022-12-18T10:43:04.876Z,99679.94
2022-12-18T10:44:22.615Z,99681.34
2022-12-18T10:45:23.844Z,99679.06
2022-12-18T10:46:25.169Z,99667.28
2022-12-18T10:47:26.474Z,99670.31
2022-12-18T10:48:27.752Z,99674.97
2022-12-18T10:49:35.711Z,99674.63
2022-12-18T10:51:09.803Z,99677.03
2022-12-18T10:52:15.053Z,99678.97
2022-12-18T10:53:23.757Z,99668.25
2022-12-18T10:54:26.106Z,99665.66
2022-12-18T10:55:33.226Z,99671.28
2022-12-18T10:56:35.430Z,99659.44
2022-12-18T10:57:37.755Z,99673.81
2022-12-18T10:58:40.387Z,99667.47
2022-12-18T10:59:53.046Z,99673.91
2022-12-18T11:01:13.933Z,99676.78
2022-12-18T11:02:29.441Z,99679.03
2022-12-18T11:03:32.869Z,99673.16
2022-12-18T11:04:34.106Z,99680.19
2022-12-18T11:05:35.434Z,99676.09
2022-12-18T11:06:53.303Z,99678.97
2022-12-18T11:07:54.783Z,99679.38
2022-12-18T11:09:00.481Z,99671.88
2022-12-18T11:10:02.148Z,99671.69
2022-12-18T11:11:03.670Z,99668.75
2022-12-18T11:12:07.119Z,99663.84
2022-12-18T11:13:19.417Z,99661.88
2022-12-18T11:14:25.904Z,99659.13
2022-12-18T11:15:31.424Z,99663.78
2022-12-18T11:17:03.208Z,99661.25
2022-12-18T11:18:05.917Z,99651.34
2022-12-18T11:19:12.859Z,99658.31
2022-12-18T11:20:22.445Z,99654.00
2022-12-18T11:21:23.659Z,99648.47
2022-12-18T11:22:27.163Z,99652.88
2022-12-18T11:23:28.559Z,99651.34
2022-12-18T11:24:33.842Z,99651.34
2022-12-18T11:25:36.188Z,99638.97
2022-12-18T11:26:37.932Z,99630.84
2022-12-18T11:27:41.028Z,99631.47
2022-12-18T11:28:45.435Z,99629.31
2022-12-18T11:29:47.050Z,99628.16
2022-12-18T11:30:48.337Z,99630.81
2022-12-18T11:31:49.586Z,99630.81
2022-12-18T11:32:53.240Z,99638.25
2022-12-18T11:34:26.784Z,99631.28
2022-12-18T11:35:20.411Z,99636.06
2022-12-18T11:36:23.033Z,99637.06
2022-12-18T11:37:24.287Z,99648.03
2022-12-18T11:38:27.090Z,99646.88
2022-12-18T11:39:37.918Z,99643.50
2022-12-18T11:40:41.628Z,99638.75
2022-12-18T11:41:52.143Z,99633.19
2022-12-18T11:43:00.574Z,99637.81
2022-12-18T11:44:03.137Z,99634.69
2022-12-18T11:45:17.834Z,99628.69
2022-12-18T11:46:39.439Z,99625.09
2022-12-18T11:47:53.074Z,99616.53
2022-12-18T11:48:58.758Z,99622.72
2022-12-18T11:50:02.091Z,99617.97
2022-12-18T11:51:06.216Z,99618.94
2022-12-18T11:52:10.194Z,99621.50
2022-12-18T11:53:12.282Z,99621.16
2022-12-18T11:54:14.475Z,99618.56
2022-12-18T11:55:35.948Z,99620.16
2022-12-18T11:56:40.888Z,99624.63
2022-12-18T11:57:54.061Z,99618.44
2022-12-18T11:59:07.546Z,99622.28
2022-12-18T12:00:08.892Z,99616.72
2022-12-18T12:01:26.013Z,99612.16
2022-12-18T12:02:33.193Z,99618.75
2022-12-18T12:03:45.602Z,99607.00
2022-12-18T12:05:16.076Z,99607.25
2022-12-18T12:06:23.185Z,99610.84
2022-12-18T12:07:47.633Z,99597.13
2022-12-18T12:09:08.556Z,99603.91
2022-12-18T12:10:21.842Z,99598.34
2022-12-18T12:11:29.068Z,99588.97
2022-12-18T12:12:49.524Z,99588.41
2022-12-18T12:14:02.736Z,99593.41
2022-12-18T12:15:23.892Z,99593.03
2022-12-18T12:16:35.156Z,99592.19
2022-12-18T12:17:54.051Z,99592.84
2022-12-18T12:19:14.003Z,99586.03
2022-12-18T12:20:26.443Z,99587.63
2022-12-18T12:21:38.155Z,99594.44
2022-12-18T12:22:59.314Z,99578.84
2022-12-18T12:24:00.525Z,99584.84
2022-12-18T12:25:11.934Z,99586.28
2022-12-18T12:26:19.827Z,99589.09
2022-12-18T12:27:33.480Z,99583.94
2022-12-18T12:28:43.991Z,99588.34
2022-12-18T12:30:02.436Z,99588.16
2022-12-18T12:31:15.782Z,99592.03
2022-12-18T12:32:37.012Z,99594.22
2022-12-18T12:33:41.539Z,99590.84
2022-12-18T12:34:43.113Z,99588.03
2022-12-18T12:35:59.685Z,99588.66
2022-12-18T12:37:10.039Z,99588.66